sensor_id;sensor_type;location;lat;lon;timestamp;pressure;altitude;pressure_sealevel;temperature;humidity
69842;BME280;57138;51.326;-0.068;2022-10-16T00:01:38;98817.06;;;10.71;80.63
69842;BME280;57138;51.326;-0.068;2022-10-16T00:04:04;98805.63;;;10.64;81.11
69842;BME280;57138;51.326;-0.068;2022-10-16T00:06:30;98802.50;;;10.67;80.92
69842;BME280;57138;51.326;-0.068;2022-10-16T00:08:56;98852.13;;;11.00;80.93
69842;BME280;57138;51.326;-0.068;2022-10-16T00:11:24;98852.47;;;11.04;81.40
69842;BME280;57138;51.326;-0.068;2022-10-16T00:13:55;98814.09;;;10.79;81.07
69842;BME280;57138;51.326;-0.068;2022-10-16T00:16:21;98855.50;;;11.07;81.68
69842;BME280;57138;51.326;-0.068;2022-10-16T00:18:48;98845.34;;;10.97;81.79
69842;BME280;57138;51.326;-0.068;2022-10-16T00:21:17;98846.31;;;11.03;81.55
69842;BME280;57138;51.326;-0.068;2022-10-16T00:23:43;98860.84;;;11.07;81.88
69842;BME280;57138;51.326;-0.068;2022-10-16T00:26:12;98836.97;;;10.94;81.71
69842;BME280;57138;51.326;-0.068;2022-10-16T00:28:38;98830.19;;;10.91;81.48
69842;BME280;57138;51.326;-0.068;2022-10-16T00:31:06;98839.03;;;10.92;81.41
69842;BME280;57138;51.326;-0.068;2022-10-16T00:33:33;98855.91;;;10.92;81.30
69842;BME280;57138;51.326;-0.068;2022-10-16T00:35:59;98842.31;;;10.75;81.46
69842;BME280;57138;51.326;-0.068;2022-10-16T00:38:25;98860.59;;;10.78;81.93
69842;BME280;57138;51.326;-0.068;2022-10-16T00:40:50;98847.50;;;10.70;81.88
69842;BME280;57138;51.326;-0.068;2022-10-16T00:43:53;98858.94;;;10.77;82.47
69842;BME280;57138;51.326;-0.068;2022-10-16T00:46:31;98856.94;;;10.73;82.15
69842;BME280;57138;51.326;-0.068;2022-10-16T00:49:09;98853.28;;;10.67;82.08
69842;BME280;57138;51.326;-0.068;2022-10-16T00:54:25;98850.13;;;10.58;82.72
69842;BME280;57138;51.326;-0.068;2022-10-16T00:56:51;98863.84;;;10.62;82.32
69842;BME280;57138;51.326;-0.068;2022-10-16T00:59:27;98828.50;;;10.41;82.83
69842;BME280;57138;51.326;-0.068;2022-10-16T01:01:54;98869.78;;;10.64;82.78
69842;BME280;57138;51.326;-0.068;2022-10-16T01:04:20;98862.50;;;10.53;82.60
69842;BME280;57138;51.326;-0.068;2022-10-16T01:12:36;98847.78;;;10.43;83.07
69842;BME280;57138;51.326;-0.068;2022-10-16T01:15:19;98879.38;;;10.53;83.51
69842;BME280;57138;51.326;-0.068;2022-10-16T01:17:57;98880.63;;;10.51;83.30
69842;BME280;57138;51.326;-0.068;2022-10-16T01:23:07;98895.44;;;10.47;83.60
69842;BME280;57138;51.326;-0.068;2022-10-16T01:28:13;98888.50;;;10.46;84.37
69842;BME280;57138;51.326;-0.068;2022-10-16T01:30:41;98849.22;;;10.21;84.19
69842;BME280;57138;51.326;-0.068;2022-10-16T01:33:28;98885.22;;;10.43;84.21
69842;BME280;57138;51.326;-0.068;2022-10-16T01:35:59;98877.88;;;10.32;84.62
69842;BME280;57138;51.326;-0.068;2022-10-16T01:38:39;98895.53;;;10.40;84.95
69842;BME280;57138;51.326;-0.068;2022-10-16T01:41:11;98870.16;;;10.24;84.90
69842;BME280;57138;51.326;-0.068;2022-10-16T01:43:46;98866.88;;;10.22;85.09
69842;BME280;57138;51.326;-0.068;2022-10-16T01:46:17;98866.72;;;10.17;85.34
69842;BME280;57138;51.326;-0.068;2022-10-16T01:48:44;98886.75;;;10.33;85.26
69842;BME280;57138;51.326;-0.068;2022-10-16T01:51:12;98893.88;;;10.39;85.62
69842;BME280;57138;51.326;-0.068;2022-10-16T01:53:41;98852.94;;;10.20;86.08
69842;BME280;57138;51.326;-0.068;2022-10-16T01:56:11;98893.44;;;10.42;85.75
69842;BME280;57138;51.326;-0.068;2022-10-16T01:59:00;98880.38;;;10.34;85.78
69842;BME280;57138;51.326;-0.068;2022-10-16T02:01:28;98923.25;;;10.64;85.83
69842;BME280;57138;51.326;-0.068;2022-10-16T02:03:58;98919.09;;;10.68;86.31
69842;BME280;57138;51.326;-0.068;2022-10-16T02:06:27;98886.88;;;10.63;86.40
69842;BME280;57138;51.326;-0.068;2022-10-16T02:08:53;98875.44;;;10.56;85.75
69842;BME280;57138;51.326;-0.068;2022-10-16T02:11:18;98899.81;;;10.66;85.89
69842;BME280;57138;51.326;-0.068;2022-10-16T02:13:46;98915.09;;;10.77;85.42
69842;BME280;57138;51.326;-0.068;2022-10-16T02:16:14;98921.03;;;10.79;85.08
69842;BME280;57138;51.326;-0.068;2022-10-16T02:18:40;98913.84;;;10.80;84.94
69842;BME280;57138;51.326;-0.068;2022-10-16T02:21:23;98918.22;;;10.74;84.75
69842;BME280;57138;51.326;-0.068;2022-10-16T02:24:04;98912.28;;;10.72;84.41
69842;BME280;57138;51.326;-0.068;2022-10-16T02:26:39;98913.75;;;10.68;84.57
69842;BME280;57138;51.326;-0.068;2022-10-16T02:29:08;98930.81;;;10.67;84.71
69842;BME280;57138;51.326;-0.068;2022-10-16T02:31:39;98907.78;;;10.48;84.29
69842;BME280;57138;51.326;-0.068;2022-10-16T02:34:07;98932.97;;;10.58;84.32
69842;BME280;57138;51.326;-0.068;2022-10-16T02:36:35;98939.34;;;10.57;84.33
69842;BME280;57138;51.326;-0.068;2022-10-16T02:39:03;98912.81;;;10.37;84.00
69842;BME280;57138;51.326;-0.068;2022-10-16T02:41:30;98920.63;;;10.32;84.18
69842;BME280;57138;51.326;-0.068;2022-10-16T02:43:56;98937.91;;;10.36;83.84
69842;BME280;57138;51.326;-0.068;2022-10-16T02:46:22;98926.84;;;10.26;83.99
69842;BME280;57138;51.326;-0.068;2022-10-16T02:48:47;98926.25;;;10.24;83.95
69842;BME280;57138;51.326;-0.068;2022-10-16T02:51:14;98944.53;;;10.27;84.26
69842;BME280;57138;51.326;-0.068;2022-10-16T02:53:39;98923.47;;;10.12;84.44
69842;BME280;57138;51.326;-0.068;2022-10-16T02:56:04;98932.50;;;10.11;84.29
69842;BME280;57138;51.326;-0.068;2022-10-16T02:58:30;98959.94;;;10.25;84.06
69842;BME280;57138;51.326;-0.068;2022-10-16T03:00:55;98958.56;;;10.16;84.25
69842;BME280;57138;51.326;-0.068;2022-10-16T03:03:20;98956.38;;;10.06;84.05
69842;BME280;57138;51.326;-0.068;2022-10-16T03:05:46;98956.00;;;10.02;84.07
69842;BME280;57138;51.326;-0.068;2022-10-16T03:08:12;98953.34;;;10.02;84.33
69842;BME280;57138;51.326;-0.068;2022-10-16T03:10:37;98968.13;;;9.98;84.15
69842;BME280;57138;51.326;-0.068;2022-10-16T03:13:03;98974.25;;;10.05;84.89
69842;BME280;57138;51.326;-0.068;2022-10-16T03:15:28;98960.78;;;9.94;84.28
69842;BME280;57138;51.326;-0.068;2022-10-16T03:17:54;98975.13;;;9.99;83.99
69842;BME280;57138;51.326;-0.068;2022-10-16T03:20:19;98949.78;;;9.77;84.08
69842;BME280;57138;51.326;-0.068;2022-10-16T03:22:45;98980.03;;;10.02;83.65
69842;BME280;57138;51.326;-0.068;2022-10-16T03:25:10;98963.69;;;9.85;83.80
69842;BME280;57138;51.326;-0.068;2022-10-16T03:27:36;98952.44;;;9.77;83.82
69842;BME280;57138;51.326;-0.068;2022-10-16T03:30:02;98980.31;;;9.87;83.67
69842;BME280;57138;51.326;-0.068;2022-10-16T03:32:27;98992.38;;;9.97;84.01
69842;BME280;57138;51.326;-0.068;2022-10-16T03:34:53;98965.78;;;9.77;83.53
69842;BME280;57138;51.326;-0.068;2022-10-16T03:37:19;98968.66;;;9.82;83.43
69842;BME280;57138;51.326;-0.068;2022-10-16T03:39:45;99007.59;;;9.96;83.41
69842;BME280;57138;51.326;-0.068;2022-10-16T03:42:11;98986.94;;;9.85;83.12
69842;BME280;57138;51.326;-0.068;2022-10-16T03:44:36;98977.94;;;9.73;83.19
69842;BME280;57138;51.326;-0.068;2022-10-16T03:47:01;98996.59;;;9.79;83.27
69842;BME280;57138;51.326;-0.068;2022-10-16T03:49:27;98983.94;;;9.68;83.24
69842;BME280;57138;51.326;-0.068;2022-10-16T03:51:52;99006.88;;;9.76;83.43
69842;BME280;57138;51.326;-0.068;2022-10-16T03:54:18;98999.09;;;9.67;83.26
69842;BME280;57138;51.326;-0.068;2022-10-16T03:56:44;99031.88;;;9.88;82.95
69842;BME280;57138;51.326;-0.068;2022-10-16T03:59:09;99009.97;;;9.73;83.29
69842;BME280;57138;51.326;-0.068;2022-10-16T04:01:35;99009.34;;;9.70;83.37
69842;BME280;57138;51.326;-0.068;2022-10-16T04:04:00;99021.63;;;9.78;83.68
69842;BME280;57138;51.326;-0.068;2022-10-16T04:06:25;99012.88;;;9.71;83.60
69842;BME280;57138;51.326;-0.068;2022-10-16T04:08:51;99030.69;;;9.77;83.51
69842;BME280;57138;51.326;-0.068;2022-10-16T04:11:16;99003.88;;;9.59;83.76
69842;BME280;57138;51.326;-0.068;2022-10-16T04:13:42;99038.50;;;9.79;84.05
69842;BME280;57138;51.326;-0.068;2022-10-16T04:16:07;99002.47;;;9.49;83.76
69842;BME280;57138;51.326;-0.068;2022-10-16T04:18:33;99035.66;;;9.67;83.97
69842;BME280;57138;51.326;-0.068;2022-10-16T04:21:06;99013.16;;;9.49;83.87
69842;BME280;57138;51.326;-0.068;2022-10-16T04:23:32;99044.91;;;9.64;84.24
69842;BME280;57138;51.326;-0.068;2022-10-16T04:25:58;99070.13;;;9.75;84.07
69842;BME280;57138;51.326;-0.068;2022-10-16T04:28:24;99063.56;;;9.64;84.59
69842;BME280;57138;51.326;-0.068;2022-10-16T04:30:50;99059.09;;;9.58;84.28
69842;BME280;57138;51.326;-0.068;2022-10-16T04:33:15;99082.91;;;9.66;84.48
69842;BME280;57138;51.326;-0.068;2022-10-16T04:35:41;99058.31;;;9.51;84.67
69842;BME280;57138;51.326;-0.068;2022-10-16T04:38:07;99060.78;;;9.46;84.81
69842;BME280;57138;51.326;-0.068;2022-10-16T04:40:32;99067.75;;;9.47;84.41
69842;BME280;57138;51.326;-0.068;2022-10-16T04:42:58;99041.97;;;9.27;84.70
69842;BME280;57138;51.326;-0.068;2022-10-16T04:45:24;99096.44;;;9.58;84.71
69842;BME280;57138;51.326;-0.068;2022-10-16T04:47:49;99073.31;;;9.39;84.62
69842;BME280;57138;51.326;-0.068;2022-10-16T04:50:15;99077.63;;;9.40;84.87
69842;BME280;57138;51.326;-0.068;2022-10-16T04:52:40;99110.41;;;9.53;85.01
69842;BME280;57138;51.326;-0.068;2022-10-16T04:55:06;99120.47;;;9.51;85.27
69842;BME280;57138;51.326;-0.068;2022-10-16T04:57:32;99116.63;;;9.47;84.41
69842;BME280;57138;51.326;-0.068;2022-10-16T04:59:59;99117.03;;;9.44;84.90
69842;BME280;57138;51.326;-0.068;2022-10-16T05:02:25;99103.91;;;9.29;84.68
69842;BME280;57138;51.326;-0.068;2022-10-16T05:04:51;99144.53;;;9.45;84.40
69842;BME280;57138;51.326;-0.068;2022-10-16T05:07:17;99124.22;;;9.30;85.07
69842;BME280;57138;51.326;-0.068;2022-10-16T05:09:42;99129.34;;;9.25;84.89
69842;BME280;57138;51.326;-0.068;2022-10-16T05:12:08;99134.69;;;9.25;84.79
69842;BME280;57138;51.326;-0.068;2022-10-16T05:14:33;99164.03;;;9.39;84.91
69842;BME280;57138;51.326;-0.068;2022-10-16T05:16:59;99150.69;;;9.32;85.00
69842;BME280;57138;51.326;-0.068;2022-10-16T05:19:25;99122.19;;;9.06;84.66
69842;BME280;57138;51.326;-0.068;2022-10-16T05:21:51;99157.66;;;9.26;84.82
69842;BME280;57138;51.326;-0.068;2022-10-16T05:24:16;99167.94;;;9.29;85.07
69842;BME280;57138;51.326;-0.068;2022-10-16T05:26:41;99157.88;;;9.31;85.07
69842;BME280;57138;51.326;-0.068;2022-10-16T05:29:07;99153.97;;;9.27;85.05
69842;BME280;57138;51.326;-0.068;2022-10-16T05:31:32;99120.94;;;9.02;85.19
69842;BME280;57138;51.326;-0.068;2022-10-16T05:33:59;99143.50;;;9.19;84.92
69842;BME280;57138;51.326;-0.068;2022-10-16T05:36:25;99145.34;;;9.18;84.88
69842;BME280;57138;51.326;-0.068;2022-10-16T05:38:51;99179.00;;;9.26;84.47
69842;BME280;57138;51.326;-0.068;2022-10-16T05:41:16;99190.72;;;9.32;84.74
69842;BME280;57138;51.326;-0.068;2022-10-16T05:43:46;99161.56;;;9.17;84.58
69842;BME280;57138;51.326;-0.068;2022-10-16T05:46:12;99185.59;;;9.30;84.48
69842;BME280;57138;51.326;-0.068;2022-10-16T05:48:37;99179.00;;;9.20;84.39
69842;BME280;57138;51.326;-0.068;2022-10-16T05:51:05;99194.81;;;9.28;83.83
69842;BME280;57138;51.326;-0.068;2022-10-16T05:53:34;99195.81;;;9.27;84.50
69842;BME280;57138;51.326;-0.068;2022-10-16T05:56:00;99204.03;;;9.25;83.77
69842;BME280;57138;51.326;-0.068;2022-10-16T05:58:29;99165.47;;;8.94;83.89
69842;BME280;57138;51.326;-0.068;2022-10-16T06:00:57;99216.34;;;9.20;84.22
69842;BME280;57138;51.326;-0.068;2022-10-16T06:03:23;99215.91;;;9.16;83.99
69842;BME280;57138;51.326;-0.068;2022-10-16T06:05:49;99193.94;;;8.94;83.79
69842;BME280;57138;51.326;-0.068;2022-10-16T06:08:14;99202.34;;;8.97;84.26
69842;BME280;57138;51.326;-0.068;2022-10-16T06:10:40;99202.78;;;8.94;84.10
69842;BME280;57138;51.326;-0.068;2022-10-16T06:13:05;99220.63;;;9.00;84.15
69842;BME280;57138;51.326;-0.068;2022-10-16T06:15:30;99205.03;;;8.84;84.60
69842;BME280;57138;51.326;-0.068;2022-10-16T06:17:56;99238.88;;;9.04;84.47
69842;BME280;57138;51.326;-0.068;2022-10-16T06:20:21;99220.22;;;8.90;84.50
69842;BME280;57138;51.326;-0.068;2022-10-16T06:22:47;99226.16;;;8.92;84.25
69842;BME280;57138;51.326;-0.068;2022-10-16T06:25:12;99212.63;;;8.87;84.28
69842;BME280;57138;51.326;-0.068;2022-10-16T06:27:41;99213.22;;;8.82;84.08
69842;BME280;57138;51.326;-0.068;2022-10-16T06:30:07;99206.84;;;8.77;84.33
69842;BME280;57138;51.326;-0.068;2022-10-16T06:32:32;99251.59;;;9.02;84.37
69842;BME280;57138;51.326;-0.068;2022-10-16T06:34:58;99245.84;;;8.98;84.45
69842;BME280;57138;51.326;-0.068;2022-10-16T06:37:23;99233.94;;;8.87;84.14
69842;BME280;57138;51.326;-0.068;2022-10-16T06:39:50;99263.91;;;9.03;84.11
69842;BME280;57138;51.326;-0.068;2022-10-16T06:42:18;99231.47;;;8.79;84.46
69842;BME280;57138;51.326;-0.068;2022-10-16T06:44:44;99265.13;;;9.00;84.63
69842;BME280;57138;51.326;-0.068;2022-10-16T06:47:10;99260.41;;;8.95;84.22
69842;BME280;57138;51.326;-0.068;2022-10-16T06:49:35;99225.47;;;8.70;83.98
69842;BME280;57138;51.326;-0.068;2022-10-16T06:52:01;99268.41;;;9.02;84.24
69842;BME280;57138;51.326;-0.068;2022-10-16T06:54:28;99276.41;;;9.02;84.71
69842;BME280;57138;51.326;-0.068;2022-10-16T06:56:53;99273.75;;;9.02;84.46
69842;BME280;57138;51.326;-0.068;2022-10-16T06:59:23;99270.84;;;8.90;84.96
69842;BME280;57138;51.326;-0.068;2022-10-16T07:01:48;99273.72;;;8.95;84.58
69842;BME280;57138;51.326;-0.068;2022-10-16T07:04:14;99277.84;;;8.91;84.88
69842;BME280;57138;51.326;-0.068;2022-10-16T07:06:40;99300.84;;;9.06;84.60
69842;BME280;57138;51.326;-0.068;2022-10-16T07:09:09;99312.53;;;9.05;84.78
69842;BME280;57138;51.326;-0.068;2022-10-16T07:11:37;99312.53;;;9.05;85.13
69842;BME280;57138;51.326;-0.068;2022-10-16T07:14:03;99315.78;;;9.07;84.96
69842;BME280;57138;51.326;-0.068;2022-10-16T07:16:31;99318.47;;;9.07;85.21
69842;BME280;57138;51.326;-0.068;2022-10-16T07:18:59;99313.13;;;9.07;85.47
69842;BME280;57138;51.326;-0.068;2022-10-16T07:21:26;99323.00;;;9.13;85.56
69842;BME280;57138;51.326;-0.068;2022-10-16T07:23:56;99325.91;;;9.18;85.34
69842;BME280;57138;51.326;-0.068;2022-10-16T07:26:23;99324.06;;;9.18;85.60
69842;BME280;57138;51.326;-0.068;2022-10-16T07:28:49;99330.63;;;9.23;85.55
69842;BME280;57138;51.326;-0.068;2022-10-16T07:31:16;99336.59;;;9.31;85.54
69842;BME280;57138;51.326;-0.068;2022-10-16T07:33:44;99329.63;;;9.30;84.96
69842;BME280;57138;51.326;-0.068;2022-10-16T07:36:11;99340.91;;;9.39;84.65
69842;BME280;57138;51.326;-0.068;2022-10-16T07:38:37;99327.16;;;9.35;85.15
69842;BME280;57138;51.326;-0.068;2022-10-16T07:41:09;99323.88;;;9.33;84.82
69842;BME280;57138;51.326;-0.068;2022-10-16T07:43:35;99343.63;;;9.46;84.87
69842;BME280;57138;51.326;-0.068;2022-10-16T07:46:02;99344.84;;;9.57;85.04
69842;BME280;57138;51.326;-0.068;2022-10-16T07:48:29;99328.81;;;9.50;84.59
69842;BME280;57138;51.326;-0.068;2022-10-16T07:51:00;99335.41;;;9.61;84.81
69842;BME280;57138;51.326;-0.068;2022-10-16T07:53:27;99336.66;;;9.71;84.27
69842;BME280;57138;51.326;-0.068;2022-10-16T07:56:00;99336.66;;;9.78;84.49
69842;BME280;57138;51.326;-0.068;2022-10-16T07:58:27;99348.16;;;9.99;83.76
69842;BME280;57138;51.326;-0.068;2022-10-16T08:00:53;99359.66;;;10.19;83.71
69842;BME280;57138;51.326;-0.068;2022-10-16T08:03:19;99338.69;;;10.23;83.62
69842;BME280;57138;51.326;-0.068;2022-10-16T08:05:44;99371.13;;;10.60;83.57
69842;BME280;57138;51.326;-0.068;2022-10-16T08:08:15;99374.97;;;10.77;83.13
69842;BME280;57138;51.326;-0.068;2022-10-16T08:10:40;99351.75;;;10.71;82.80
69842;BME280;57138;51.326;-0.068;2022-10-16T08:13:06;99377.63;;;10.91;82.29
69842;BME280;57138;51.326;-0.068;2022-10-16T08:15:31;99379.41;;;11.04;81.97
69842;BME280;57138;51.326;-0.068;2022-10-16T08:17:59;99361.13;;;11.01;81.39
69842;BME280;57138;51.326;-0.068;2022-10-16T08:20:26;99368.88;;;11.09;81.83
69842;BME280;57138;51.326;-0.068;2022-10-16T08:22:52;99400.47;;;11.32;81.61
69842;BME280;57138;51.326;-0.068;2022-10-16T08:25:21;99391.44;;;11.33;81.00
69842;BME280;57138;51.326;-0.068;2022-10-16T08:27:46;99402.69;;;11.42;80.76
69842;BME280;57138;51.326;-0.068;2022-10-16T08:30:12;99399.63;;;11.38;80.42
69842;BME280;57138;51.326;-0.068;2022-10-16T08:32:38;99398.41;;;11.41;79.92
69842;BME280;57138;51.326;-0.068;2022-10-16T08:35:05;99395.50;;;11.36;79.80
69842;BME280;57138;51.326;-0.068;2022-10-16T08:37:32;99412.00;;;11.39;79.26
69842;BME280;57138;51.326;-0.068;2022-10-16T08:39:58;99389.63;;;11.20;79.32
69842;BME280;57138;51.326;-0.068;2022-10-16T08:45:26;99398.81;;;11.31;79.35
69842;BME280;57138;51.326;-0.068;2022-10-16T08:50:30;99409.47;;;11.44;78.75
69842;BME280;57138;51.326;-0.068;2022-10-16T08:52:57;99418.75;;;11.48;78.47
69842;BME280;57138;51.326;-0.068;2022-10-16T08:57:54;99408.63;;;11.50;77.89
69842;BME280;57138;51.326;-0.068;2022-10-16T09:00:20;99421.00;;;11.51;77.81
69842;BME280;57138;51.326;-0.068;2022-10-16T09:09:15;99450.09;;;11.73;76.14
69842;BME280;57138;51.326;-0.068;2022-10-16T09:11:56;99454.19;;;11.76;76.53
69842;BME280;57138;51.326;-0.068;2022-10-16T09:15:03;99450.88;;;11.80;76.23
69842;BME280;57138;51.326;-0.068;2022-10-16T09:22:38;99455.59;;;11.85;77.02
69842;BME280;57138;51.326;-0.068;2022-10-16T09:25:16;99446.56;;;11.79;75.97
69842;BME280;57138;51.326;-0.068;2022-10-16T09:27:47;99457.81;;;11.95;76.18
69842;BME280;57138;51.326;-0.068;2022-10-16T09:30:16;99470.13;;;12.02;76.47
69842;BME280;57138;51.326;-0.068;2022-10-16T09:32:43;99454.13;;;11.96;75.90
69842;BME280;57138;51.326;-0.068;2022-10-16T09:35:43;99469.28;;;12.09;74.96
69842;BME280;57138;51.326;-0.068;2022-10-16T09:38:09;99438.47;;;11.93;74.09
69842;BME280;57138;51.326;-0.068;2022-10-16T09:40:46;99472.31;;;12.12;74.42
69842;BME280;57138;51.326;-0.068;2022-10-16T09:43:20;99441.94;;;12.00;74.37
69842;BME280;57138;51.326;-0.068;2022-10-16T09:45:59;99483.97;;;12.31;74.76
69842;BME280;57138;51.326;-0.068;2022-10-16T09:48:27;99489.63;;;12.41;74.48
69842;BME280;57138;51.326;-0.068;2022-10-16T09:51:02;99484.19;;;12.55;73.99
69842;BME280;57138;51.326;-0.068;2022-10-16T09:53:45;99470.03;;;12.66;74.05
69842;BME280;57138;51.326;-0.068;2022-10-16T09:56:22;99480.44;;;12.81;72.85
69842;BME280;57138;51.326;-0.068;2022-10-16T09:58:53;99486.31;;;12.90;73.48
69842;BME280;57138;51.326;-0.068;2022-10-16T10:01:20;99494.56;;;12.95;72.48
69842;BME280;57138;51.326;-0.068;2022-10-16T10:03:46;99471.50;;;12.87;73.08
69842;BME280;57138;51.326;-0.068;2022-10-16T10:06:25;99465.69;;;12.90;72.85
69842;BME280;57138;51.326;-0.068;2022-10-16T10:14:23;99496.13;;;13.40;72.33
69842;BME280;57138;51.326;-0.068;2022-10-16T10:16:52;99494.78;;;13.49;71.76
69842;BME280;57138;51.326;-0.068;2022-10-16T10:19:21;99481.06;;;13.57;71.82
69842;BME280;57138;51.326;-0.068;2022-10-16T10:21:47;99500.66;;;13.76;71.64
69842;BME280;57138;51.326;-0.068;2022-10-16T10:24:15;99466.91;;;13.80;71.29
69842;BME280;57138;51.326;-0.068;2022-10-16T10:32:21;99501.31;;;14.32;68.23
69842;BME280;57138;51.326;-0.068;2022-10-16T10:35:22;99494.84;;;14.33;68.18
69842;BME280;57138;51.326;-0.068;2022-10-16T10:45:43;99490.50;;;14.74;67.00
69842;BME280;57138;51.326;-0.068;2022-10-16T10:54:17;99490.59;;;15.03;64.83
69842;BME280;57138;51.326;-0.068;2022-10-16T10:57:01;99490.13;;;15.06;64.92
69842;BME280;57138;51.326;-0.068;2022-10-16T11:00:01;99486.84;;;15.04;59.68
69842;BME280;57138;51.326;-0.068;2022-10-16T11:02:38;99465.44;;;14.86;60.46
69842;BME280;57138;51.326;-0.068;2022-10-16T11:07:50;99466.03;;;14.88;63.25
69842;BME280;57138;51.326;-0.068;2022-10-16T11:10:24;99476.47;;;14.96;63.16
69842;BME280;57138;51.326;-0.068;2022-10-16T11:15:39;99478.44;;;15.01;64.26
69842;BME280;57138;51.326;-0.068;2022-10-16T11:21:16;99446.72;;;14.91;64.60
69842;BME280;57138;51.326;-0.068;2022-10-16T11:23:51;99475.63;;;15.19;62.93
69842;BME280;57138;51.326;-0.068;2022-10-16T11:26:23;99475.94;;;15.23;64.60
69842;BME280;57138;51.326;-0.068;2022-10-16T11:28:51;99438.31;;;14.99;62.99
69842;BME280;57138;51.326;-0.068;2022-10-16T11:31:36;99478.63;;;15.23;62.86
69842;BME280;57138;51.326;-0.068;2022-10-16T11:37:07;99464.47;;;15.16;63.79
69842;BME280;57138;51.326;-0.068;2022-10-16T11:39:35;99426.94;;;14.97;63.36
69842;BME280;57138;51.326;-0.068;2022-10-16T11:42:08;99436.66;;;14.98;62.75
69842;BME280;57138;51.326;-0.068;2022-10-16T11:45:03;99453.03;;;15.08;62.07
69842;BME280;57138;51.326;-0.068;2022-10-16T11:49:55;99442.38;;;15.02;62.68
69842;BME280;57138;51.326;-0.068;2022-10-16T11:52:36;99458.84;;;15.29;62.56
69842;BME280;57138;51.326;-0.068;2022-10-16T11:55:08;99466.06;;;15.40;63.00
69842;BME280;57138;51.326;-0.068;2022-10-16T11:57:54;99455.28;;;15.40;62.45
69842;BME280;57138;51.326;-0.068;2022-10-16T12:00:23;99468.09;;;15.62;62.46
69842;BME280;57138;51.326;-0.068;2022-10-16T12:02:54;99466.41;;;15.73;62.29
69842;BME280;57138;51.326;-0.068;2022-10-16T12:08:08;99470.88;;;15.79;61.94
69842;BME280;57138;51.326;-0.068;2022-10-16T12:10:34;99480.38;;;15.70;61.49
69842;BME280;57138;51.326;-0.068;2022-10-16T12:13:33;99473.50;;;15.62;61.54
69842;BME280;57138;51.326;-0.068;2022-10-16T12:18:38;99468.38;;;15.49;63.42
69842;BME280;57138;51.326;-0.068;2022-10-16T12:21:04;99464.41;;;15.39;63.71
69842;BME280;57138;51.326;-0.068;2022-10-16T12:23:32;99440.13;;;15.22;63.00
69842;BME280;57138;51.326;-0.068;2022-10-16T12:25:59;99459.88;;;15.28;63.70
69842;BME280;57138;51.326;-0.068;2022-10-16T12:28:29;99418.63;;;14.99;63.82
69842;BME280;57138;51.326;-0.068;2022-10-16T12:30:56;99463.19;;;15.18;64.33
69842;BME280;57138;51.326;-0.068;2022-10-16T12:33:25;99446.16;;;15.01;64.13
69842;BME280;57138;51.326;-0.068;2022-10-16T12:35:53;99430.56;;;14.91;64.44
69842;BME280;57138;51.326;-0.068;2022-10-16T12:41:01;99452.34;;;15.01;65.25
69842;BME280;57138;51.326;-0.068;2022-10-16T12:43:45;99463.09;;;15.01;65.04
69842;BME280;57138;51.326;-0.068;2022-10-16T12:48:38;99442.97;;;14.92;65.27
69842;BME280;57138;51.326;-0.068;2022-10-16T12:54:28;99451.16;;;14.97;66.13
69842;BME280;57138;51.326;-0.068;2022-10-16T13:00:00;99448.22;;;14.99;65.46
69842;BME280;57138;51.326;-0.068;2022-10-16T13:08:29;99457.38;;;14.98;67.04
69842;BME280;57138;51.326;-0.068;2022-10-16T13:27:17;99454.31;;;15.06;68.03
69842;BME280;57138;51.326;-0.068;2022-10-16T13:30:01;99433.38;;;14.96;68.04
69842;BME280;57138;51.326;-0.068;2022-10-16T13:32:27;99435.38;;;15.01;67.79
69842;BME280;57138;51.326;-0.068;2022-10-16T13:34:53;99436.19;;;15.01;67.79
69842;BME280;57138;51.326;-0.068;2022-10-16T13:37:21;99436.19;;;15.01;67.63
69842;BME280;57138;51.326;-0.068;2022-10-16T13:39:47;99402.97;;;14.84;68.57
69842;BME280;57138;51.326;-0.068;2022-10-16T13:42:31;99408.56;;;14.94;68.11
69842;BME280;57138;51.326;-0.068;2022-10-16T13:44:58;99429.47;;;15.16;68.27
69842;BME280;57138;51.326;-0.068;2022-10-16T13:47:28;99428.75;;;15.20;68.15
69842;BME280;57138;51.326;-0.068;2022-10-16T13:50:09;99434.03;;;15.27;68.32
69842;BME280;57138;51.326;-0.068;2022-10-16T13:52:36;99438.09;;;15.30;68.42
69842;BME280;57138;51.326;-0.068;2022-10-16T13:55:04;99433.03;;;15.33;68.45
69842;BME280;57138;51.326;-0.068;2022-10-16T13:57:30;99408.88;;;15.21;67.97
69842;BME280;57138;51.326;-0.068;2022-10-16T13:59:56;99424.31;;;15.26;68.10
69842;BME280;57138;51.326;-0.068;2022-10-16T14:02:26;99414.59;;;15.25;68.30
69842;BME280;57138;51.326;-0.068;2022-10-16T14:04:53;99422.41;;;15.26;68.10
69842;BME280;57138;51.326;-0.068;2022-10-16T14:07:37;99443.34;;;15.36;68.69
69842;BME280;57138;51.326;-0.068;2022-10-16T14:10:20;99431.91;;;15.29;68.19
69842;BME280;57138;51.326;-0.068;2022-10-16T14:12:55;99430.34;;;15.33;68.84
69842;BME280;57138;51.326;-0.068;2022-10-16T14:15:20;99416.13;;;15.21;69.01
69842;BME280;57138;51.326;-0.068;2022-10-16T14:17:49;99422.09;;;15.23;69.17
69842;BME280;57138;51.326;-0.068;2022-10-16T14:20:15;99398.72;;;15.12;69.25
69842;BME280;57138;51.326;-0.068;2022-10-16T14:22:42;99369.75;;;14.90;69.34
69842;BME280;57138;51.326;-0.068;2022-10-16T14:27:57;99416.22;;;15.26;69.38
69842;BME280;57138;51.326;-0.068;2022-10-16T14:30:23;99395.31;;;15.04;69.95
69842;BME280;57138;51.326;-0.068;2022-10-16T14:33:03;99399.91;;;15.04;69.66
69842;BME280;57138;51.326;-0.068;2022-10-16T14:35:32;99399.66;;;15.05;69.94
69842;BME280;57138;51.326;-0.068;2022-10-16T14:37:59;99421.75;;;15.19;70.01
69842;BME280;57138;51.326;-0.068;2022-10-16T14:40:36;99387.03;;;14.94;70.08
69842;BME280;57138;51.326;-0.068;2022-10-16T14:43:03;99407.25;;;15.08;70.51
69842;BME280;57138;51.326;-0.068;2022-10-16T14:45:31;99402.84;;;15.02;70.34
69842;BME280;57138;51.326;-0.068;2022-10-16T14:48:00;99398.97;;;14.98;70.37
69842;BME280;57138;51.326;-0.068;2022-10-16T14:50:26;99414.66;;;15.01;70.42
69842;BME280;57138;51.326;-0.068;2022-10-16T14:52:52;99401.91;;;14.97;70.95
69842;BME280;57138;51.326;-0.068;2022-10-16T14:55:18;99406.66;;;15.06;70.49
69842;BME280;57138;51.326;-0.068;2022-10-16T14:57:45;99367.78;;;14.73;70.85